Middleboro, MA

4:14 AM EDT on June 03, 2015 (GMT -0400)
KMAMIDDL3 | | Change Station
CLOSE
Current Station
Personal Weather Station
Location: Middleboro, MA
Elevation: 39 ft
Nearby Weather Stations

Elev 39 ft 41.92 °N, 70.92 °W | Updated 1 second ago

Mostly Cloudy
Mostly Cloudy
45.2 °F
Feels Like 45 °F
N
0.0
Wind Variable Wind from West
Gusts 0.0 mph

Today
High -- | Low -- °F
--% Chance of Precip.
Yesterday
High -- | Low -- °F
Precip. -- in
5:10 AM 8:13 PM
Waxing Gibbous, 99% visible
Pressure 30.19 in
Visibility 10.0 miles
Clouds Few 1500 ft
Windchill 45 °F
Dew Point 36 °F
Humidity 70%
Rainfall 0.00 in
Snow Depth Not available.
UV 0 out of 12
Pollen 1.00 out of 12
Air Quality Not available.
Flu Activity Local Activity
METAR KTAN 030752Z AUTO 00000KT 10SM FEW015 08/07 A3019 RMK AO2 SLP223 T00830067

More Conditions Fewer Conditions

Pressure 30.19 in
Visibility 10.0 miles
Clouds Few 1500 ft
Windchill 45 °F
Dew Point 36 °F
Humidity 70%
Rainfall 0.00 in
Snow Depth Not available.
UV 0 out of 12
Pollen 1.00 out of 12
Air Quality Not available.
Flu Activity Local Activity
METAR KTAN 030752Z AUTO 00000KT 10SM FEW015 08/07 A3019 RMK AO2 SLP223 T00830067

More Conditions Fewer Conditions

10-Day Weather Forecast

×

Almanac

Astronomy

Jun. 03, 2015 Rise Set
Actual Time
Civil Twilight
Nautical Twilight
Astronomical Twilight
Moon
Length of Visible Light
Length of Day
Tomorrow will be .
, % of the Moon is Illuminated

Today's Extremes

State Highs State Lows

Community

WunderPhotos

Upload Photos

1,826,191 photos uploaded!

WunderBlogs® & News

Nearby

Air Quality

  Air Quality AQ Index Pollutant
Not available.

Snow Depth

Station Depth Elevation

Earthquake Activity

City Distance Mag. Time & Date
Minimum magnitude displayed is 2.5.

Coastal Water Temperatures

Place Temperature

Stations

Nearby Weather Stations

Station Location Temp. Windchill Dew Point Humidity Wind Precip. Elev Updated Type